createdAt,value
2022-08-03T00:01:20.201Z,95887.69
2022-08-03T00:03:46.607Z,95895.47
2022-08-03T00:06:12.997Z,95890.53
2022-08-03T00:08:40.282Z,95898.97
2022-08-03T00:11:06.837Z,95901.09
2022-08-03T00:13:33.260Z,95897.13
2022-08-03T00:15:59.720Z,95889.31
2022-08-03T00:18:26.141Z,95897.53
2022-08-03T00:20:52.530Z,95893.44
2022-08-03T00:23:18.994Z,95895.53
2022-08-03T00:25:45.395Z,95897.44
2022-08-03T00:28:11.773Z,95901.31
2022-08-03T00:30:38.431Z,95897.56
2022-08-03T00:33:08.289Z,95893.44
2022-08-03T00:35:49.245Z,95899.03
2022-08-03T00:38:17.507Z,95892.19
2022-08-03T00:40:43.886Z,95902.53
2022-08-03T00:43:10.316Z,95895.00
2022-08-03T00:45:36.751Z,95896.63
2022-08-03T00:48:03.128Z,95894.72
2022-08-03T00:50:29.522Z,95895.88
2022-08-03T00:52:55.972Z,95894.06
2022-08-03T00:55:22.360Z,95890.72
2022-08-03T00:57:48.754Z,95894.56
2022-08-03T01:00:15.320Z,95890.69
2022-08-03T01:02:41.713Z,95896.31
2022-08-03T01:05:08.106Z,95890.72
2022-08-03T01:07:34.571Z,95894.06
2022-08-03T01:10:00.947Z,95891.53
2022-08-03T01:12:27.343Z,95889.69
2022-08-03T01:14:53.884Z,95890.13
2022-08-03T01:17:20.281Z,95889.38
2022-08-03T01:19:46.677Z,95883.38
2022-08-03T01:22:13.350Z,95888.38
2022-08-03T01:24:40.882Z,95882.44
2022-08-03T01:27:07.430Z,95891.84
2022-08-03T01:29:33.875Z,95886.69
2022-08-03T01:32:59.657Z,95886.69
2022-08-03T01:34:46.661Z,95882.91
2022-08-03T01:37:13.096Z,95881.84
2022-08-03T01:39:39.475Z,95884.66
2022-08-03T01:42:05.953Z,95881.22
2022-08-03T01:44:32.348Z,95881.03
2022-08-03T01:46:58.778Z,95884.44
2022-08-03T01:49:25.396Z,95879.91
2022-08-03T01:51:58.496Z,95876.16
2022-08-03T01:54:31.158Z,95884.03
2022-08-03T01:56:57.571Z,95881.03
2022-08-03T01:59:23.973Z,95878.34
2022-08-03T02:02:19.526Z,95879.09
2022-08-03T02:04:36.815Z,95882.63
2022-08-03T02:07:03.559Z,95875.44
2022-08-03T02:09:30.033Z,95878.66
2022-08-03T02:11:56.456Z,95880.22
2022-08-03T02:14:22.864Z,95877.25
2022-08-03T02:16:49.307Z,95884.47
2022-08-03T02:19:15.717Z,95884.56
2022-08-03T02:21:56.485Z,95885.00
2022-08-03T02:24:27.596Z,95887.50
2022-08-03T02:26:54.062Z,95892.56
2022-08-03T02:29:20.486Z,95883.75
2022-08-03T02:32:05.597Z,95884.50
2022-08-03T02:34:31.998Z,95886.28
2022-08-03T02:36:58.378Z,95880.50
2022-08-03T02:39:24.886Z,95877.19
2022-08-03T02:41:51.281Z,95881.06
2022-08-03T02:44:17.692Z,95885.34
2022-08-03T02:46:44.190Z,95884.69
2022-08-03T02:49:40.979Z,95884.50
2022-08-03T02:51:57.019Z,95876.53
2022-08-03T02:54:23.492Z,95880.72
2022-08-03T02:56:49.910Z,95878.56
2022-08-03T02:59:16.497Z,95880.28
2022-08-03T03:01:42.902Z,95883.94
2022-08-03T03:04:09.336Z,95883.31
2022-08-03T03:06:35.776Z,95882.03
2022-08-03T03:09:03.122Z,95881.28
2022-08-03T03:11:29.517Z,95886.88
2022-08-03T03:13:55.944Z,95885.81
2022-08-03T03:16:22.325Z,95890.09
2022-08-03T03:18:48.706Z,95888.69
2022-08-03T03:21:15.141Z,95893.41
2022-08-03T03:23:41.587Z,95889.03
2022-08-03T03:26:08.116Z,95888.38
2022-08-03T03:28:34.607Z,95891.50
2022-08-03T03:31:00.993Z,95895.34
2022-08-03T03:33:28.586Z,95896.66
2022-08-03T03:35:55.271Z,95891.72
2022-08-03T03:38:21.737Z,95893.34
2022-08-03T03:40:48.116Z,95895.56
2022-08-03T03:43:14.628Z,95895.13
2022-08-03T03:45:41.015Z,95898.25
2022-08-03T03:48:07.411Z,95894.59
2022-08-03T03:50:33.907Z,95893.53
2022-08-03T03:53:00.368Z,95898.91
2022-08-03T03:55:26.858Z,95897.41
2022-08-03T03:57:53.300Z,95899.88
2022-08-03T04:00:19.743Z,95904.94
2022-08-03T04:02:46.121Z,95907.63
2022-08-03T04:05:12.663Z,95902.78
2022-08-03T04:07:39.089Z,95908.78
2022-08-03T04:10:14.064Z,95896.75
2022-08-03T04:12:50.129Z,95902.25
2022-08-03T04:15:17.123Z,95899.56
2022-08-03T04:17:43.600Z,95905.03
2022-08-03T04:20:10.034Z,95905.47
2022-08-03T04:22:36.538Z,95914.75
2022-08-03T04:25:03.079Z,95901.69
2022-08-03T04:27:29.503Z,95901.38
2022-08-03T04:29:55.909Z,95906.94
2022-08-03T04:32:22.440Z,95910.47
2022-08-03T04:34:48.820Z,95910.59
2022-08-03T04:37:15.266Z,95917.13
2022-08-03T04:39:41.832Z,95916.47
2022-08-03T04:42:09.175Z,95911.13
2022-08-03T04:44:35.723Z,95918.94
2022-08-03T04:47:02.201Z,95918.31
2022-08-03T04:49:28.659Z,95914.56
2022-08-03T04:51:55.210Z,95920.22
2022-08-03T04:54:21.665Z,95914.41
2022-08-03T04:56:48.062Z,95919.13
2022-08-03T04:59:14.474Z,95915.88
2022-08-03T05:01:40.997Z,95921.34
2022-08-03T05:04:07.417Z,95931.06
2022-08-03T05:06:33.801Z,95920.19
2022-08-03T05:09:01.855Z,95922.78
2022-08-03T05:11:28.275Z,95927.16
2022-08-03T05:13:56.245Z,95934.78
2022-08-03T05:16:22.703Z,95943.34
2022-08-03T05:18:49.088Z,95930.13
2022-08-03T05:21:15.478Z,95943.97
2022-08-03T05:23:41.943Z,95940.94
2022-08-03T05:26:08.754Z,95947.56
2022-08-03T05:28:36.109Z,95941.88
2022-08-03T05:31:02.556Z,95942.38
2022-08-03T05:33:28.943Z,95938.91
2022-08-03T05:36:03.372Z,95944.38
2022-08-03T05:38:34.841Z,95939.44
2022-08-03T05:41:22.507Z,95953.59
2022-08-03T05:43:48.232Z,95943.97
2022-08-03T05:46:14.622Z,95943.72
2022-08-03T05:48:41.062Z,95946.41
2022-08-03T05:51:07.497Z,95946.53
2022-08-03T05:53:33.968Z,95950.13
2022-08-03T05:56:02.695Z,95946.53
2022-08-03T05:58:39.922Z,95951.56
2022-08-03T06:01:06.355Z,95947.81
2022-08-03T06:03:35.098Z,95942.78
2022-08-03T06:06:01.571Z,95946.66
2022-08-03T06:08:27.968Z,95948.97
2022-08-03T06:10:54.403Z,95946.66
2022-08-03T06:13:20.905Z,95946.34
2022-08-03T06:15:47.278Z,95945.50
2022-08-03T06:18:13.697Z,95954.19
2022-08-03T06:20:40.192Z,95948.13
2022-08-03T06:23:06.601Z,95949.66
2022-08-03T06:25:33.948Z,95950.63
2022-08-03T06:28:00.396Z,95944.66
2022-08-03T06:30:26.862Z,95951.81
2022-08-03T06:32:53.299Z,95950.84
2022-08-03T06:35:19.839Z,95948.13
2022-08-03T06:37:46.287Z,95955.34
2022-08-03T06:40:13.769Z,95968.44
2022-08-03T06:42:40.485Z,95961.44
2022-08-03T06:45:08.268Z,95964.03
2022-08-03T06:47:34.695Z,95961.28
2022-08-03T06:50:12.570Z,95956.22
2022-08-03T06:52:43.150Z,95965.69
2022-08-03T06:55:09.587Z,95971.47
2022-08-03T06:57:36.058Z,95975.47
2022-08-03T07:00:08.953Z,95977.75
2022-08-03T07:02:38.258Z,95979.81
2022-08-03T07:05:05.547Z,95984.84
2022-08-03T07:07:31.946Z,95976.25
2022-08-03T07:09:58.570Z,95981.97
2022-08-03T07:12:24.952Z,95981.53
2022-08-03T07:14:51.404Z,95991.41
2022-08-03T07:17:17.926Z,95986.81
2022-08-03T07:19:44.333Z,95985.59
2022-08-03T07:22:10.794Z,95996.47
2022-08-03T07:24:37.225Z,95995.50
2022-08-03T07:27:03.617Z,95997.34
2022-08-03T07:29:29.987Z,96000.34
2022-08-03T07:32:01.259Z,96003.44
2022-08-03T07:34:27.637Z,96009.63
2022-08-03T07:36:54.082Z,96002.75
2022-08-03T07:39:20.566Z,96002.38
2022-08-03T07:41:46.956Z,96007.38
2022-08-03T07:44:13.357Z,96010.47
2022-08-03T07:46:39.821Z,96002.28
2022-08-03T07:49:06.214Z,96003.81
2022-08-03T07:51:32.665Z,96004.63
2022-08-03T07:53:59.114Z,96003.06
2022-08-03T07:56:25.519Z,95999.28
2022-08-03T07:58:51.918Z,95998.31
2022-08-03T08:01:18.443Z,96002.84
2022-08-03T08:03:52.660Z,96000.19
2022-08-03T08:06:20.143Z,96004.47
2022-08-03T08:08:46.615Z,96000.28
2022-08-03T08:11:13.104Z,96002.38
2022-08-03T08:13:39.668Z,95998.69
2022-08-03T08:16:06.107Z,95992.84
2022-08-03T08:18:32.506Z,95997.47
2022-08-03T08:20:59.018Z,95992.44
2022-08-03T08:23:41.884Z,95995.81
2022-08-03T08:26:10.192Z,95987.22
2022-08-03T08:28:36.579Z,95991.41
2022-08-03T08:31:04.817Z,95995.81
2022-08-03T08:34:05.100Z,95992.19
2022-08-03T08:36:17.713Z,95993.81
2022-08-03T08:38:44.211Z,95989.88
2022-08-03T08:41:10.792Z,95992.53
2022-08-03T08:43:37.359Z,95993.81
2022-08-03T08:46:03.865Z,95987.41
2022-08-03T08:48:30.300Z,95980.13
2022-08-03T08:50:56.682Z,95994.28
2022-08-03T08:53:27.221Z,95983.31
2022-08-03T08:55:58.655Z,95992.09
2022-08-03T08:58:26.605Z,95981.56
2022-08-03T09:00:53.393Z,95984.09
2022-08-03T09:03:22.550Z,95981.44
2022-08-03T09:05:56.469Z,95995.06
2022-08-03T09:08:23.008Z,95989.47
2022-08-03T09:10:49.420Z,95992.31
2022-08-03T09:13:15.855Z,95995.56
2022-08-03T09:15:42.263Z,95988.00
2022-08-03T09:18:27.563Z,95992.44
2022-08-03T09:21:03.799Z,95992.44
2022-08-03T09:24:01.386Z,95982.88
2022-08-03T09:26:29.490Z,95995.38
2022-08-03T09:29:02.073Z,95989.69
2022-08-03T09:31:30.423Z,95994.41
2022-08-03T09:33:56.897Z,95995.38
2022-08-03T09:36:23.284Z,95993.97
2022-08-03T09:38:50.327Z,95988.53
2022-08-03T09:41:16.943Z,95987.78
2022-08-03T09:43:43.347Z,95991.38
2022-08-03T09:46:09.760Z,95987.53
2022-08-03T09:48:36.247Z,95982.94
2022-08-03T09:51:14.474Z,95981.41
2022-08-03T09:53:59.772Z,95981.94
2022-08-03T09:56:33.639Z,95979.25
2022-08-03T09:59:03.043Z,95978.91
2022-08-03T10:01:29.536Z,95979.25
2022-08-03T10:04:03.108Z,95970.72
2022-08-03T10:06:31.391Z,95970.53
2022-08-03T10:08:57.809Z,95970.53
2022-08-03T10:11:24.339Z,95967.34
2022-08-03T10:13:58.024Z,95963.75
2022-08-03T10:16:28.001Z,95953.53
2022-08-03T10:18:54.433Z,95949.38
2022-08-03T10:21:20.878Z,95953.19
2022-08-03T10:23:47.328Z,95954.06
2022-08-03T10:26:13.801Z,95946.13
2022-08-03T10:28:44.744Z,95945.94
2022-08-03T10:31:11.810Z,95947.34
2022-08-03T10:33:50.891Z,95954.13
2022-08-03T10:36:19.119Z,95948.53
2022-08-03T10:38:45.670Z,95939.31
2022-08-03T10:41:12.122Z,95935.66
2022-08-03T10:43:38.644Z,95932.00
2022-08-03T10:46:05.113Z,95933.09
2022-08-03T10:48:31.719Z,95939.41
2022-08-03T10:50:58.128Z,95937.56
2022-08-03T10:53:24.570Z,95942.63
2022-08-03T10:55:50.976Z,95945.53
2022-08-03T10:58:30.423Z,95937.69
2022-08-03T11:00:57.475Z,95944.16
2022-08-03T11:03:23.916Z,95936.41
2022-08-03T11:05:50.352Z,95928.25
2022-08-03T11:08:17.397Z,95927.66
2022-08-03T11:10:43.862Z,95920.06
2022-08-03T11:13:10.254Z,95928.09
2022-08-03T11:15:36.803Z,95923.81
2022-08-03T11:18:03.358Z,95927.69
2022-08-03T11:20:33.678Z,95925.97
2022-08-03T11:23:00.200Z,95917.28
2022-08-03T11:25:54.403Z,95925.25
2022-08-03T11:28:13.116Z,95922.34
2022-08-03T11:30:41.133Z,95923.50
2022-08-03T11:33:07.550Z,95918.88
2022-08-03T11:35:34.051Z,95919.19
2022-08-03T11:38:03.058Z,95908.75
2022-08-03T11:40:31.571Z,95904.22
2022-08-03T11:42:58.172Z,95910.91
2022-08-03T11:45:24.634Z,95906.63
2022-08-03T11:47:51.620Z,95898.13
2022-08-03T11:50:18.143Z,95899.75
2022-08-03T11:52:44.621Z,95901.69
2022-08-03T11:55:11.110Z,95899.63
2022-08-03T11:59:00.985Z,95898.34
2022-08-03T12:00:23.997Z,95898.34
2022-08-03T12:02:52.679Z,95890.91
2022-08-03T12:05:19.238Z,95887.78
2022-08-03T12:08:03.408Z,95880.47
2022-08-03T12:10:32.187Z,95874.53
2022-08-03T12:12:58.752Z,95883.31
2022-08-03T12:15:25.332Z,95879.47
2022-08-03T12:17:55.986Z,95873.25
2022-08-03T12:20:31.247Z,95871.66
2022-08-03T12:23:01.211Z,95871.66
2022-08-03T12:25:38.616Z,95870.78
2022-08-03T12:28:06.310Z,95869.16
2022-08-03T12:30:52.698Z,95869.16
2022-08-03T12:33:19.341Z,95866.78
2022-08-03T12:35:52.508Z,95866.56
2022-08-03T12:38:21.023Z,95858.81
2022-08-03T12:40:47.479Z,95854.00
2022-08-03T12:43:13.919Z,95850.28
2022-08-03T12:45:40.395Z,95857.19
2022-08-03T12:48:06.826Z,95845.28
2022-08-03T12:50:33.268Z,95848.91
2022-08-03T12:52:59.802Z,95842.28
2022-08-03T12:55:26.380Z,95849.06
2022-08-03T12:57:52.789Z,95845.63
2022-08-03T13:00:21.633Z,95840.84
2022-08-03T13:03:17.350Z,95844.91
2022-08-03T13:05:42.553Z,95841.91
2022-08-03T13:08:09.101Z,95843.53
2022-08-03T13:10:37.977Z,95840.53
2022-08-03T13:13:04.408Z,95838.94
2022-08-03T13:15:33.522Z,95841.00
2022-08-03T13:18:05.238Z,95840.84
2022-08-03T13:20:31.672Z,95845.41
2022-08-03T13:23:00.952Z,95836.81
2022-08-03T13:25:27.594Z,95835.72
2022-08-03T13:28:04.120Z,95836.91
2022-08-03T13:30:31.619Z,95830.03
2022-08-03T13:32:58.093Z,95830.78
2022-08-03T13:35:25.506Z,95829.91
2022-08-03T13:37:52.030Z,95825.28
2022-08-03T13:40:18.517Z,95828.72
2022-08-03T13:42:50.335Z,95820.66
2022-08-03T13:45:16.855Z,95822.19
2022-08-03T13:47:43.410Z,95811.72
2022-08-03T13:50:09.806Z,95813.56
2022-08-03T13:52:36.304Z,95810.09
2022-08-03T13:55:02.802Z,95818.19
2022-08-03T13:58:03.233Z,95820.28
2022-08-03T14:00:26.671Z,95810.03
2022-08-03T14:03:01.823Z,95809.59
2022-08-03T14:05:32.065Z,95801.66
2022-08-03T14:08:04.421Z,95797.03
2022-08-03T14:10:31.679Z,95797.34
2022-08-03T14:12:58.174Z,95796.88
2022-08-03T14:15:24.578Z,95794.53
2022-08-03T14:17:51.055Z,95794.09
2022-08-03T14:20:36.742Z,95796.00
2022-08-03T14:23:04.053Z,95785.16
2022-08-03T14:25:30.447Z,95785.59
2022-08-03T14:28:09.822Z,95780.34
2022-08-03T14:30:36.223Z,95781.53
2022-08-03T14:33:02.718Z,95773.03
2022-08-03T14:35:29.154Z,95776.59
2022-08-03T14:37:55.634Z,95767.88
2022-08-03T14:40:22.051Z,95764.31
2022-08-03T14:42:48.478Z,95763.13
2022-08-03T14:45:20.546Z,95759.13
2022-08-03T14:50:28.713Z,95747.63
2022-08-03T14:50:42.843Z,95756.03
2022-08-03T14:53:10.728Z,95754.06
2022-08-03T14:55:38.452Z,95747.97
2022-08-03T14:58:19.765Z,95752.78
2022-08-03T15:00:47.780Z,95752.44
2022-08-03T15:03:15.896Z,95748.91
2022-08-03T15:05:43.554Z,95752.63
2022-08-03T15:08:10.020Z,95746.91
2022-08-03T15:10:44.412Z,95752.38
2022-08-03T15:13:12.212Z,95743.25
2022-08-03T15:15:38.700Z,95736.25
2022-08-03T15:18:05.126Z,95741.94
2022-08-03T15:20:43.270Z,95736.88
2022-08-03T15:23:10.605Z,95730.00
2022-08-03T15:26:03.957Z,95741.06
2022-08-03T15:28:23.510Z,95733.75
2022-08-03T15:30:49.990Z,95727.19
2022-08-03T15:33:16.420Z,95726.75
2022-08-03T15:35:42.813Z,95725.84
2022-08-03T15:38:09.860Z,95721.81
2022-08-03T15:40:36.398Z,95716.56
2022-08-03T15:43:02.801Z,95714.75
2022-08-03T15:45:29.254Z,95718.50
2022-08-03T15:48:02.890Z,95718.19
2022-08-03T15:50:29.397Z,95718.19
2022-08-03T15:52:55.803Z,95713.25
2022-08-03T15:55:22.520Z,95717.44
2022-08-03T15:59:09.104Z,95712.38
2022-08-03T16:00:35.436Z,95707.75
2022-08-03T16:03:01.971Z,95713.44
2022-08-03T16:05:28.375Z,95705.66
2022-08-03T16:08:02.611Z,95707.94
2022-08-03T16:10:30.547Z,95707.16
2022-08-03T16:12:56.946Z,95697.03
2022-08-03T16:15:23.400Z,95694.41
2022-08-03T16:17:49.941Z,95701.88
2022-08-03T16:20:31.261Z,95691.13
2022-08-03T16:23:01.551Z,95702.63
2022-08-03T16:25:35.537Z,95699.94
2022-08-03T16:28:07.867Z,95694.19
2022-08-03T16:30:39.647Z,95696.16
2022-08-03T16:33:06.430Z,95693.66
2022-08-03T16:35:32.856Z,95698.50
2022-08-03T16:37:59.261Z,95689.84
2022-08-03T16:40:25.786Z,95685.06
2022-08-03T16:42:52.189Z,95689.56
2022-08-03T16:45:18.584Z,95688.63
2022-08-03T16:47:45.099Z,95681.41
2022-08-03T16:50:19.080Z,95682.72
2022-08-03T16:52:47.416Z,95678.81
2022-08-03T16:55:15.543Z,95674.19
2022-08-03T16:57:59.364Z,95673.75
2022-08-03T17:00:34.376Z,95677.81
2022-08-03T17:03:12.531Z,95678.22
2022-08-03T17:05:49.546Z,95677.66
2022-08-03T17:08:16.391Z,95671.56
2022-08-03T17:10:52.825Z,95673.78
2022-08-03T17:13:22.477Z,95672.91
2022-08-03T17:16:00.727Z,95671.25
2022-08-03T17:18:28.120Z,95671.25
2022-08-03T17:20:54.550Z,95676.09
2022-08-03T17:23:35.570Z,95673.00
2022-08-03T17:26:04.861Z,95671.44
2022-08-03T17:28:49.702Z,95668.41
2022-08-03T17:31:22.891Z,95678.88
2022-08-03T17:33:57.475Z,95665.13
2022-08-03T17:36:32.974Z,95672.75
2022-08-03T17:39:08.553Z,95674.13
2022-08-03T17:41:35.432Z,95673.38
2022-08-03T17:44:15.465Z,95670.97
2022-08-03T17:46:44.443Z,95673.84
2022-08-03T17:49:24.496Z,95670.84
2022-08-03T17:51:53.094Z,95675.66
2022-08-03T17:54:20.152Z,95676.84
2022-08-03T17:56:46.764Z,95691.34
2022-08-03T17:59:13.319Z,95689.97
2022-08-03T18:02:02.589Z,95681.72
2022-08-03T18:04:30.061Z,95676.91
2022-08-03T18:06:57.059Z,95678.09
2022-08-03T18:10:06.159Z,95687.34
2022-08-03T18:12:10.143Z,95677.97
2022-08-03T18:14:36.549Z,95685.88
2022-08-03T18:17:03.003Z,95679.75
2022-08-03T18:20:02.471Z,95688.56
2022-08-03T18:22:15.851Z,95692.78
2022-08-03T18:24:42.297Z,95686.19
2022-08-03T18:27:08.870Z,95691.88
2022-08-03T18:29:35.308Z,95685.00
2022-08-03T18:32:05.312Z,95685.75
2022-08-03T18:34:34.473Z,95689.03
2022-08-03T18:37:01.103Z,95692.84
2022-08-03T18:39:34.082Z,95687.13
2022-08-03T18:42:19.625Z,95683.66
2022-08-03T18:44:54.231Z,95690.25
2022-08-03T18:47:22.482Z,95688.88
2022-08-03T18:49:48.990Z,95686.03
2022-08-03T18:52:15.404Z,95691.72
2022-08-03T18:54:51.769Z,95691.72
2022-08-03T18:57:30.436Z,95689.50
2022-08-03T19:00:01.428Z,95689.03
2022-08-03T19:02:28.915Z,95697.41
2022-08-03T19:04:55.293Z,95692.78
2022-08-03T19:07:24.693Z,95683.53
2022-08-03T19:09:51.234Z,95689.66
2022-08-03T19:12:31.163Z,95690.09
2022-08-03T19:15:03.173Z,95697.31
2022-08-03T19:17:29.771Z,95695.66
2022-08-03T19:19:56.226Z,95700.09
2022-08-03T19:22:22.753Z,95700.25
2022-08-03T19:24:49.314Z,95695.94
2022-08-03T19:27:16.117Z,95707.13
2022-08-03T19:29:59.771Z,95704.75
2022-08-03T19:32:27.588Z,95710.16
2022-08-03T19:34:55.097Z,95708.94
2022-08-03T19:37:22.197Z,95711.50
2022-08-03T19:39:56.698Z,95709.97
2022-08-03T19:42:23.444Z,95710.75
2022-08-03T19:44:49.851Z,95718.81
2022-08-03T19:47:18.377Z,95718.06
2022-08-03T19:50:06.302Z,95719.88
2022-08-03T19:52:34.465Z,95719.16
2022-08-03T19:55:01.050Z,95717.41
2022-08-03T19:57:27.487Z,95712.97
2022-08-03T19:59:53.971Z,95724.66
2022-08-03T20:02:26.598Z,95733.63
2022-08-03T20:04:53.760Z,95729.28
2022-08-03T20:07:22.798Z,95734.66
2022-08-03T20:09:56.025Z,95742.44
2022-08-03T20:12:26.448Z,95739.75
2022-08-03T20:14:54.826Z,95735.25
2022-08-03T20:17:22.738Z,95744.22
2022-08-03T20:20:09.147Z,95740.47
2022-08-03T20:22:35.638Z,95738.25
2022-08-03T20:25:05.531Z,95737.38
2022-08-03T20:27:32.191Z,95739.75
2022-08-03T20:30:18.614Z,95736.94
2022-08-03T20:32:52.807Z,95735.97
2022-08-03T20:35:19.303Z,95740.66
2022-08-03T20:37:46.627Z,95737.66
2022-08-03T20:40:13.117Z,95738.25
2022-08-03T20:42:40.694Z,95740.63
2022-08-03T20:45:15.132Z,95741.41
2022-08-03T20:47:53.636Z,95739.59
2022-08-03T20:50:20.046Z,95742.13
2022-08-03T20:52:49.728Z,95731.22
2022-08-03T20:55:17.108Z,95733.75
2022-08-03T20:57:43.514Z,95734.03
2022-08-03T21:00:15.715Z,95735.25
2022-08-03T21:02:42.172Z,95741.53
2022-08-03T21:05:09.229Z,95739.00
2022-08-03T21:08:04.478Z,95744.69
2022-08-03T21:10:24.739Z,95752.88
2022-08-03T21:13:13.573Z,95744.69
2022-08-03T21:16:03.261Z,95745.28
2022-08-03T21:18:27.814Z,95750.06
2022-08-03T21:20:55.645Z,95744.50
2022-08-03T21:23:39.732Z,95749.91
2022-08-03T21:26:08.536Z,95743.03
2022-08-03T21:28:34.957Z,95742.28
2022-08-03T21:31:01.384Z,95747.97
2022-08-03T21:33:27.869Z,95744.97
2022-08-03T21:35:54.258Z,95750.66
2022-08-03T21:38:20.687Z,95755.16
2022-08-03T21:40:56.493Z,95750.66
2022-08-03T21:43:22.983Z,95760.25
2022-08-03T21:45:49.381Z,95771.31
2022-08-03T21:48:15.891Z,95766.06
2022-08-03T21:50:42.351Z,95759.97
2022-08-03T21:53:08.793Z,95763.94
2022-08-03T21:55:35.244Z,95769.03
2022-08-03T21:58:01.633Z,95769.47
2022-08-03T22:00:28.020Z,95766.63
2022-08-03T22:02:55.761Z,95773.66
2022-08-03T22:05:42.935Z,95770.66
2022-08-03T22:08:09.005Z,95782.19
2022-08-03T22:10:35.459Z,95779.03
2022-08-03T22:13:01.868Z,95771.84
2022-08-03T22:15:28.324Z,95776.03
2022-08-03T22:17:57.198Z,95774.84
2022-08-03T22:20:23.884Z,95781.97
2022-08-03T22:22:55.352Z,95785.41
2022-08-03T22:25:22.759Z,95794.78
2022-08-03T22:27:49.219Z,95788.34
2022-08-03T22:30:15.663Z,95784.13
2022-08-03T22:32:42.039Z,95783.59
2022-08-03T22:35:08.421Z,95788.69
2022-08-03T22:37:34.874Z,95798.81
2022-08-03T22:40:01.727Z,95795.84
2022-08-03T22:42:28.209Z,95803.19
2022-08-03T22:44:54.696Z,95800.94
2022-08-03T22:47:22.540Z,95796.31
2022-08-03T22:49:49.510Z,95804.38
2022-08-03T22:52:36.041Z,95797.06
2022-08-03T22:55:02.422Z,95801.38
2022-08-03T22:57:28.847Z,95800.63
2022-08-03T22:59:55.302Z,95801.66
2022-08-03T23:02:21.814Z,95800.75
2022-08-03T23:04:48.301Z,95806.97
2022-08-03T23:07:14.809Z,95804.81
2022-08-03T23:09:41.221Z,95802.25
2022-08-03T23:12:07.666Z,95803.16
2022-08-03T23:14:34.268Z,95801.78
2022-08-03T23:17:00.728Z,95800.28
2022-08-03T23:19:27.136Z,95805.22
2022-08-03T23:22:02.814Z,95796.09
2022-08-03T23:24:30.482Z,95802.84
2022-08-03T23:26:57.094Z,95795.34
2022-08-03T23:29:23.495Z,95807.03
2022-08-03T23:31:49.922Z,95805.22
2022-08-03T23:34:16.910Z,95804.91
2022-08-03T23:36:43.351Z,95811.03
2022-08-03T23:39:09.871Z,95810.31
2022-08-03T23:41:36.491Z,95814.97
2022-08-03T23:44:02.891Z,95807.38
2022-08-03T23:46:30.157Z,95808.69
2022-08-03T23:48:56.852Z,95808.50
2022-08-03T23:51:23.259Z,95809.25
2022-08-03T23:53:49.969Z,95811.00
2022-08-03T23:56:16.500Z,95811.44
2022-08-03T23:58:42.914Z,95808.75
